ADDS TAF Board (Experimental) INFO Settings

IDs: Format: Expanded Condensed

KMIA - Miami Intl, FL, US

Issued at 1931 UTC 31 Mar 2015
Updated at: 2045 UTC 31 Mar 2015
Time1953Z 31/21Z 31/22Z 31/23Z 01/00Z 01/01Z 01/02Z 01/03Z 01/04Z 01/05Z 01/06Z 01/07Z 01/08Z 01/09Z
Type OBS PRVL PRVL PRVL PRVL PRVL PRVL PRVL PRVL PRVL PRVL PRVL PRVL PRVL
VIS 10 >6 >6 >6 >6 >6 >6 >6 >6 >6 >6 >6 >6 >6
CIG -- -- -- -- -- -- -- -- -- -- -- -- -- --
Cover FEW FEW FEW FEW FEW FEW FEW FEW FEW FEW FEW FEW FEW FEW
FltCat VFR VFR VFR VFR VFR VFR VFR VFR VFR VFR VFR VFR VFR VFR
WX -- -- -- -- -- -- -- -- -- -- -- -- -- --
WDir 120 150 150 150 160 160 160 160 160 250 250 250 250 250
WSpd 9 8 8 8 4 4 4 4 4 3 3 3 3 3
WGst 15 17 17 17 -- -- -- -- -- -- -- -- -- --
R08/26
XWnd -5 -7 -7 -7 -4 -4 -4 -4 -4 -1 -1 -1 -1 -1
XGst -8 -15 -15 -15 -- -- -- -- -- -- -- -- -- --
HWnd 8 4 4 4 1 1 1 1 1 -3 -3 -3 -3 -3
HGst 13 8 8 8 -- -- -- -- -- -- -- -- -- --
R09/27
XWnd -5 -7 -7 -7 -4 -4 -4 -4 -4 -1 -1 -1 -1 -1
XGst -8 -15 -15 -15 -- -- -- -- -- -- -- -- -- --
HWnd 8 4 4 4 1 1 1 1 1 -3 -3 -3 -3 -3
HGst 13 8 8 8 -- -- -- -- -- -- -- -- -- --
R12/30
XWnd -0 -4 -4 -4 -3 -3 -3 -3 -3 -2 -2 -2 -2 -2
XGst -0 -9 -9 -9 -- -- -- -- -- -- -- -- -- --
HWnd 9 7 7 7 3 3 3 3 3 -2 -2 -2 -2 -2
HGst 15 15 15 15 -- -- -- -- -- -- -- -- -- --

NOTE: TEMPO conditions in [brackets]. Keep in mind TEMPO conditions might be better (lower impact) than prevailing conditions.

Raw TAF
KMIA 311931Z 3120/0118 15008G17KT P6SM FEW050
  FM010000 16004KT P6SM FEW050
  FM010500 25003KT P6SM FEW250
  FM011600 07008KT P6SM SCT040


Raw METAR
KMIA 311953Z 12009G15KT 10SM FEW050 FEW300 26/10 A3010 RMK AO2 SLP192 T02610100
KMIA 311853Z 15008G17KT 10SM FEW050 27/08 A3011 RMK AO2 SLP197 T02670083
KMIA 311753Z VRB04KT 10SM FEW050 27/09 A3014 RMK AO2 SLP207 T02670089 10272 20183 58017

METAR Board
Radar Display
Forecast Discussion

TAF Board Legend

Potential Impact
Threat None Slight Moderate High
Visibility (sm) ≥5.1 5.1>X≥3 3>X≥1 <1
Ceiling (100 ft) ≥30.1 30.1>X≥10 10>X≥5 <5
Wind Speed (kt) <10 10≤X<20 20≤X<30 ≥30
Wind Gust (kt) <15 15≤X<25 25≤X<35 ≥35
Weather No Wx Reported VCTS,-TS,-FZRA,SN TS,FZRA +TS,+FZRA,+SN